Time;durP1;ratioP1;P1;durP2;ratioP2;P2;SDS_P1;SDS_P2;PMS_P1;PMS_P2;Temp;Humidity;BMP_temperature;BMP_pressure;BME280_temperature;BME280_humidity;BME280_pressure;Samples;Min_cycle;Max_cycle;Signal;HPM_P1;HPM_P2
2023/10/07 00:02:59;;;;;;;9.63;6.30;;;;;;;10.38;100.00;100878.81;5075187;28;20277;-66
2023/10/07 00:05:32;;;;;;;10.13;6.20;;;;;;;10.44;100.00;100881.97;5072219;28;20185;-66
2023/10/07 00:08:01;;;;;;;9.03;5.80;;;;;;;10.30;100.00;100882.50;5054090;28;20266;-67
2023/10/07 00:10:27;;;;;;;8.27;5.87;;;;;;;10.31;100.00;100873.06;5047643;28;20785;-69
2023/10/07 00:12:53;;;;;;;8.97;6.40;;;;;;;10.17;100.00;100878.75;5069942;28;20191;-66
2023/10/07 00:15:21;;;;;;;11.50;6.00;;;;;;;10.24;100.00;100871.63;5075991;28;20279;-66
2023/10/07 00:17:47;;;;;;;9.30;6.43;;;;;;;10.26;100.00;100872.41;5062729;28;20238;-65
2023/10/07 00:20:15;;;;;;;11.17;6.13;;;;;;;10.14;100.00;100869.41;5043351;28;20644;-66
2023/10/07 00:22:41;;;;;;;8.30;6.67;;;;;;;10.12;100.00;100871.25;5052001;28;20228;-65
2023/10/07 00:25:07;;;;;;;10.77;6.93;;;;;;;10.15;100.00;100871.09;5053663;28;20554;-66
2023/10/07 00:27:38;;;;;;;9.37;6.57;;;;;;;10.18;100.00;100881.28;5053734;28;20272;-66
2023/10/07 00:30:13;;;;;;;10.53;6.70;;;;;;;10.18;100.00;100878.69;5061256;28;20173;-66
2023/10/07 00:32:38;;;;;;;9.67;6.40;;;;;;;10.25;100.00;100873.31;5069900;28;20199;-66
2023/10/07 00:35:06;;;;;;;10.67;6.47;;;;;;;10.15;100.00;100872.84;5059006;28;20177;-65
2023/10/07 00:37:33;;;;;;;8.77;6.03;;;;;;;9.92;100.00;100868.63;5071307;28;20184;-67
2023/10/07 00:40:08;;;;;;;11.63;6.57;;;;;;;9.86;100.00;100869.72;5041929;28;20267;-66
2023/10/07 00:42:34;;;;;;;10.13;6.70;;;;;;;9.67;100.00;100864.44;5058206;28;20635;-65
2023/10/07 00:45:02;;;;;;;9.60;6.30;;;;;;;9.72;100.00;100877.94;5052914;28;20226;-64
2023/10/07 00:47:28;;;;;;;11.67;6.67;;;;;;;9.91;100.00;100879.78;5055890;28;20227;-65
2023/10/07 00:49:54;;;;;;;11.80;6.50;;;;;;;9.88;100.00;100877.34;5054758;28;20179;-65
2023/10/07 00:52:29;;;;;;;9.67;5.93;;;;;;;9.83;100.00;100875.78;5056028;28;20221;-65
2023/10/07 00:55:09;;;;;;;9.67;6.43;;;;;;;9.83;100.00;100883.50;5062893;28;20297;-65
2023/10/07 00:57:35;;;;;;;9.63;5.97;;;;;;;9.88;100.00;100879.91;5070810;28;20188;-65
2023/10/07 01:02:46;;;;;;;11.63;7.03;;;;;;;9.52;100.00;100879.53;5031234;28;20332;-64
2023/10/07 01:05:13;;;;;;;11.97;6.73;;;;;;;9.47;100.00;100865.19;5057272;28;20623;-66
2023/10/07 01:07:41;;;;;;;12.30;6.90;;;;;;;9.49;100.00;100861.66;5059858;28;20188;-65
2023/10/07 01:12:39;;;;;;;9.37;6.43;;;;;;;9.58;100.00;100852.78;5069537;28;20177;-65
2023/10/07 01:15:12;;;;;;;9.33;5.80;;;;;;;9.62;100.00;100854.31;5071276;28;20200;-65
2023/10/07 01:17:40;;;;;;;12.10;6.57;;;;;;;9.59;100.00;100848.47;5058663;28;20231;-65
2023/10/07 01:20:08;;;;;;;10.27;6.30;;;;;;;9.60;100.00;100853.56;5051458;28;20308;-66
2023/10/07 01:22:42;;;;;;;9.17;5.90;;;;;;;9.63;100.00;100853.44;5053778;28;20663;-66
2023/10/07 01:25:09;;;;;;;11.97;6.50;;;;;;;9.62;100.00;100854.31;5065441;28;20172;-66
2023/10/07 01:27:50;;;;;;;10.27;6.50;;;;;;;9.60;100.00;100850.13;5073793;28;20567;-65
2023/10/07 01:30:16;;;;;;;9.97;7.23;;;;;;;9.53;100.00;100855.50;5062239;28;20660;-65
2023/10/07 01:35:39;;;;;;;9.00;6.40;;;;;;;9.56;100.00;100867.41;5046232;28;20343;-65
2023/10/07 01:38:08;;;;;;;9.73;6.87;;;;;;;9.56;100.00;100867.41;5048371;28;20260;-64
2023/10/07 01:43:15;;;;;;;9.33;6.00;;;;;;;9.51;100.00;100856.47;5036726;28;20213;-64
2023/10/07 01:45:40;;;;;;;9.13;5.93;;;;;;;9.44;100.00;100855.03;5036418;28;20255;-64
2023/10/07 01:48:10;;;;;;;10.93;6.47;;;;;;;9.52;100.00;100848.69;5047263;28;20551;-64
2023/10/07 01:50:40;;;;;;;12.20;6.50;;;;;;;9.51;100.00;100838.50;5026399;28;20247;-65
2023/10/07 01:53:05;;;;;;;13.00;7.20;;;;;;;9.53;100.00;100844.41;5017435;28;20194;-66
2023/10/07 01:55:43;;;;;;;11.27;6.37;;;;;;;9.44;100.00;100837.91;5048239;28;20186;-64
2023/10/07 01:58:13;;;;;;;9.97;7.10;;;;;;;9.47;100.00;100842.91;5047359;28;20185;-64
2023/10/07 02:00:44;;;;;;;10.67;6.27;;;;;;;9.50;100.00;100845.38;5021178;28;20261;-64
2023/10/07 02:03:13;;;;;;;12.53;6.40;;;;;;;9.52;100.00;100858.97;5047756;28;20212;-64
2023/10/07 02:05:46;;;;;;;13.33;7.30;;;;;;;9.48;100.00;100854.84;5028084;28;20187;-65
2023/10/07 02:08:14;;;;;;;9.80;6.33;;;;;;;9.47;100.00;100852.34;5021299;28;20744;-67
2023/10/07 02:10:41;;;;;;;10.30;6.20;;;;;;;9.50;100.00;100863.34;5033071;28;20212;-66
2023/10/07 02:13:08;;;;;;;11.37;6.80;;;;;;;9.53;100.00;100860.66;5076002;28;20328;-63
2023/10/07 02:15:37;;;;;;;9.57;6.30;;;;;;;9.53;100.00;100850.38;5105291;28;20210;-64
2023/10/07 02:18:03;;;;;;;9.27;6.60;;;;;;;9.55;100.00;100863.19;5076182;28;20176;-65
2023/10/07 02:20:36;;;;;;;10.47;6.80;;;;;;;9.47;100.00;100867.75;5089563;28;20232;-65
2023/10/07 02:23:04;;;;;;;11.77;6.90;;;;;;;9.41;100.00;100865.44;5076155;28;20325;-66
2023/10/07 02:25:29;;;;;;;7.83;6.23;;;;;;;9.46;100.00;100866.09;5087223;28;20203;-65
2023/10/07 02:27:55;;;;;;;12.63;6.47;;;;;;;9.30;100.00;100860.69;5095579;28;20199;-64
2023/10/07 02:30:20;;;;;;;11.33;6.77;;;;;;;9.18;100.00;100860.25;5092078;28;20176;-64
2023/10/07 02:32:47;;;;;;;11.20;6.27;;;;;;;9.15;100.00;100851.81;5083992;28;20179;-64
2023/10/07 02:35:18;;;;;;;8.53;5.93;;;;;;;9.20;100.00;100857.63;5095635;28;20183;-66
2023/10/07 02:37:49;;;;;;;11.13;6.37;;;;;;;9.10;100.00;100863.97;5108036;28;20179;-65
2023/10/07 02:40:35;;;;;;;11.83;6.73;;;;;;;9.18;100.00;100860.25;5083621;28;20188;-65
2023/10/07 02:43:04;;;;;;;10.13;7.13;;;;;;;9.21;100.00;100854.16;5091659;28;20192;-65
2023/10/07 02:45:31;;;;;;;9.10;6.00;;;;;;;9.12;100.00;100849.38;5076025;28;20673;-64
2023/10/07 02:48:02;;;;;;;7.90;6.07;;;;;;;9.02;100.00;100851.44;5085404;28;20185;-64
2023/10/07 02:50:31;;;;;;;9.37;6.10;;;;;;;9.01;100.00;100844.63;5079855;28;20224;-64
2023/10/07 02:52:57;;;;;;;11.67;6.90;;;;;;;8.93;100.00;100841.50;5091901;28;20262;-65
2023/10/07 02:57:57;;;;;;;11.13;6.33;;;;;;;9.11;100.00;100853.66;5083666;28;20261;-65
2023/10/07 03:00:49;;;;;;;12.23;6.93;;;;;;;9.07;100.00;100848.69;5081870;28;20227;-66
2023/10/07 03:05:49;;;;;;;12.43;6.30;;;;;;;9.01;100.00;100865.16;5082205;28;20254;-66
2023/10/07 03:08:20;;;;;;;10.37;6.33;;;;;;;8.98;100.00;100865.25;5106773;28;20172;-65
2023/10/07 03:11:11;;;;;;;10.13;6.60;;;;;;;8.79;100.00;100867.63;5073031;28;20235;-65
2023/10/07 03:13:37;;;;;;;11.80;7.70;;;;;;;8.83;100.00;100866.63;5092546;28;20643;-64
2023/10/07 03:16:09;;;;;;;8.77;6.17;;;;;;;8.78;100.00;100861.69;5075048;28;20551;-66
2023/10/07 03:18:38;;;;;;;10.57;6.40;;;;;;;8.65;100.00;100856.13;5093077;28;20176;-66
2023/10/07 03:21:06;;;;;;;11.00;6.80;;;;;;;8.67;100.00;100862.03;5092082;28;20220;-65
2023/10/07 03:23:36;;;;;;;8.60;6.10;;;;;;;8.71;100.00;100866.16;5091816;28;20243;-66
2023/10/07 03:28:35;;;;;;;12.60;7.47;;;;;;;8.65;100.00;100876.63;5092956;28;20278;-67
2023/10/07 03:31:08;;;;;;;12.07;7.30;;;;;;;8.71;100.00;100875.59;5053431;28;20629;-66
2023/10/07 03:33:53;;;;;;;8.67;7.13;;;;;;;8.65;100.00;100873.25;5082952;28;20187;-65
2023/10/07 03:38:50;;;;;;;10.37;6.37;;;;;;;8.44;100.00;100867.09;5092505;28;20210;-63
2023/10/07 03:41:21;;;;;;;14.17;7.70;;;;;;;8.30;100.00;100859.81;5064406;28;20255;-65
2023/10/07 03:43:46;;;;;;;10.03;6.47;;;;;;;8.33;100.00;100870.00;5091210;28;20219;-64
2023/10/07 03:46:12;;;;;;;9.57;6.90;;;;;;;8.37;100.00;100871.56;5080994;28;20654;-66
2023/10/07 03:48:39;;;;;;;11.13;7.17;;;;;;;8.31;100.00;100866.63;5090987;28;20210;-66
2023/10/07 03:51:05;;;;;;;10.57;7.60;;;;;;;8.18;100.00;100877.28;5067773;28;20273;-65
2023/10/07 03:53:32;;;;;;;9.80;6.67;;;;;;;8.34;100.00;100854.56;5075962;28;20545;-66
2023/10/07 03:56:02;;;;;;;11.00;7.37;;;;;;;8.32;100.00;100858.06;5092555;28;20487;-66
2023/10/07 03:58:28;;;;;;;11.27;6.73;;;;;;;8.26;100.00;100846.31;5082683;28;20175;-66
2023/10/07 04:00:55;;;;;;;9.50;6.63;;;;;;;8.34;100.00;100839.19;5074305;28;20244;-66
2023/10/07 04:03:23;;;;;;;12.33;7.17;;;;;;;8.40;100.00;100840.72;5090417;28;20325;-64
2023/10/07 04:05:49;;;;;;;12.23;7.07;;;;;;;8.34;100.00;100840.91;5089101;28;20213;-64
2023/10/07 04:08:15;;;;;;;10.43;7.27;;;;;;;8.50;100.00;100854.91;5081676;28;20330;-65
2023/10/07 04:10:45;;;;;;;9.27;6.73;;;;;;;8.59;100.00;100858.06;5071535;28;20779;-65
2023/10/07 04:13:21;;;;;;;12.27;7.10;;;;;;;8.58;100.00;100853.81;5071473;28;20179;-65
2023/10/07 04:15:51;;;;;;;10.83;7.50;;;;;;;8.67;100.00;100843.22;5070820;28;20203;-64
2023/10/07 04:18:17;;;;;;;8.70;6.43;;;;;;;8.66;100.00;100841.59;5085357;28;20214;-65
2023/10/07 04:23:21;;;;;;;9.60;6.33;;;;;;;8.64;100.00;100858.75;5089736;28;20261;-64
2023/10/07 04:25:47;;;;;;;8.13;6.63;;;;;;;8.75;100.00;100848.94;5092104;28;20172;-64
2023/10/07 04:28:16;;;;;;;9.97;7.23;;;;;;;8.80;100.00;100848.78;5092211;28;20249;-66
2023/10/07 04:30:47;;;;;;;9.67;6.43;;;;;;;8.88;100.00;100850.19;5063269;28;20256;-66
2023/10/07 04:33:13;;;;;;;9.60;7.00;;;;;;;8.80;100.00;100843.66;5070543;28;20242;-67
2023/10/07 04:35:39;;;;;;;11.63;7.07;;;;;;;8.76;100.00;100850.63;5068436;28;20189;-64
2023/10/07 04:40:54;;;;;;;10.80;6.60;;;;;;;8.70;100.00;100861.09;5081732;28;20264;-64
2023/10/07 04:43:25;;;;;;;12.63;7.13;;;;;;;8.74;100.00;100849.00;5087462;28;20196;-64
2023/10/07 04:45:51;;;;;;;11.53;7.47;;;;;;;8.80;100.00;100846.22;5093646;28;20711;-64
2023/10/07 04:51:04;;;;;;;11.70;6.80;;;;;;;8.90;100.00;100846.75;5084050;28;20231;-64
2023/10/07 04:53:39;;;;;;;12.40;6.73;;;;;;;8.99;100.00;100849.81;5083231;28;20203;-64
2023/10/07 04:56:20;;;;;;;11.57;5.80;;;;;;;8.90;100.00;100850.13;5073463;28;20183;-65
2023/10/07 04:58:46;;;;;;;11.40;6.60;;;;;;;9.04;100.00;100850.47;5070792;28;20542;-64
2023/10/07 05:03:58;;;;;;;10.83;7.10;;;;;;;9.06;100.00;100847.03;5106288;28;20222;-64
2023/10/07 05:06:27;;;;;;;10.50;5.97;;;;;;;9.19;100.00;100863.63;5105499;28;20183;-65
2023/10/07 05:08:53;;;;;;;10.30;7.00;;;;;;;9.32;100.00;100861.47;5103619;28;20187;-67
2023/10/07 05:11:18;;;;;;;11.27;6.97;;;;;;;9.37;100.00;100852.69;5088541;28;20222;-66
2023/10/07 05:13:46;;;;;;;9.57;6.27;;;;;;;9.38;100.00;100856.09;5092776;28;20262;-66
2023/10/07 05:16:12;;;;;;;11.13;6.73;;;;;;;9.37;100.00;100855.25;5073156;28;20585;-66
2023/10/07 05:18:38;;;;;;;9.90;6.27;;;;;;;9.37;100.00;100855.25;5073281;28;20175;-66
2023/10/07 05:21:04;;;;;;;9.43;6.27;;;;;;;9.38;100.00;100868.94;5067235;28;20225;-65
2023/10/07 05:23:30;;;;;;;10.90;6.90;;;;;;;9.56;100.00;100871.72;5087745;28;20308;-65
2023/10/07 05:25:56;;;;;;;8.53;6.60;;;;;;;9.51;100.00;100866.75;5091285;28;20180;-64
2023/10/07 05:28:21;;;;;;;10.03;7.30;;;;;;;9.41;100.00;100866.25;5091565;28;20200;-64
2023/10/07 05:30:51;;;;;;;9.70;7.23;;;;;;;9.51;100.00;100857.31;5079712;28;20255;-64
2023/10/07 05:33:24;;;;;;;19.90;8.10;;;;;;;9.67;100.00;100860.16;5089548;28;20187;-64
2023/10/07 05:35:50;;;;;;;13.17;6.93;;;;;;;9.81;100.00;100871.59;5044089;28;20186;-64
2023/10/07 05:38:19;;;;;;;11.50;7.43;;;;;;;9.90;100.00;100865.25;5073798;28;20259;-64
2023/10/07 05:40:47;;;;;;;10.37;6.40;;;;;;;9.89;100.00;100871.31;5067373;28;20255;-65
2023/10/07 05:43:13;;;;;;;14.17;7.03;;;;;;;9.82;100.00;100870.72;5089305;28;20215;-65
2023/10/07 05:45:40;;;;;;;9.83;6.73;;;;;;;9.85;100.00;100871.44;5073327;28;20184;-64
2023/10/07 05:48:07;;;;;;;14.40;7.47;;;;;;;9.91;100.00;100864.38;5074668;28;20186;-65
2023/10/07 05:50:33;;;;;;;12.73;7.80;;;;;;;9.88;100.00;100873.03;5062614;28;20235;-65
2023/10/07 05:52:59;;;;;;;10.57;6.93;;;;;;;10.10;100.00;100851.63;5069982;28;20181;-65
2023/10/07 05:55:25;;;;;;;13.70;7.70;;;;;;;10.26;100.00;100846.72;5089168;28;20584;-65
2023/10/07 05:57:52;;;;;;;10.80;7.00;;;;;;;10.57;100.00;100846.28;5097481;28;20183;-64
2023/10/07 06:00:18;;;;;;;11.20;7.30;;;;;;;10.65;100.00;100844.22;5088715;28;20753;-66
2023/10/07 06:02:43;;;;;;;10.33;6.73;;;;;;;10.87;100.00;100835.56;5088944;28;20291;-65
2023/10/07 06:05:10;;;;;;;10.23;6.40;;;;;;;11.03;100.00;100837.47;5094610;28;20325;-65
2023/10/07 06:07:39;;;;;;;12.50;6.80;;;;;;;11.15;100.00;100836.91;5095002;28;20176;-65
2023/10/07 06:10:10;;;;;;;14.17;6.73;;;;;;;11.26;100.00;100836.41;5065889;28;20181;-65
2023/10/07 06:12:36;;;;;;;13.23;6.53;;;;;;;11.35;100.00;100838.56;5071895;28;20594;-65
2023/10/07 06:15:01;;;;;;;10.87;6.03;;;;;;;11.37;100.00;100847.03;5105546;28;20212;-65
2023/10/07 06:17:27;;;;;;;11.23;6.43;;;;;;;11.46;100.00;100861.25;5091890;28;20176;-66
2023/10/07 06:19:52;;;;;;;10.93;6.77;;;;;;;11.57;100.00;100858.19;5105114;28;20180;-67
2023/10/07 06:22:17;;;;;;;16.40;7.03;;;;;;;11.65;100.00;100858.66;5058734;28;20221;-65
2023/10/07 06:24:43;;;;;;;13.37;7.33;;;;;;;11.71;100.00;100849.78;5080836;28;20693;-65
2023/10/07 06:27:12;;;;;;;11.77;7.13;;;;;;;11.85;100.00;100854.31;5114025;28;20198;-66
2023/10/07 06:29:43;;;;;;;8.93;6.00;;;;;;;11.80;100.00;100849.38;5085313;28;20181;-66
2023/10/07 06:32:28;;;;;;;9.57;6.10;;;;;;;11.95;100.00;100866.66;5074071;28;20227;-66
2023/10/07 06:34:54;;;;;;;13.63;6.07;;;;;;;12.00;100.00;100868.25;5056906;28;20173;-66
2023/10/07 06:37:25;;;;;;;10.90;6.50;;;;;;;12.04;100.00;100864.59;5082237;28;20180;-65
2023/10/07 06:39:51;;;;;;;11.13;6.60;;;;;;;11.93;100.00;100863.34;5075916;28;20623;-65
2023/10/07 06:42:21;;;;;;;10.23;6.73;;;;;;;12.11;100.00;100865.97;5060125;28;20225;-65
2023/10/07 06:44:47;;;;;;;11.33;5.93;;;;;;;12.11;100.00;100868.56;5085883;28;20312;-66
2023/10/07 06:47:12;;;;;;;12.03;6.53;;;;;;;11.90;100.00;100870.41;5072674;28;20666;-66
2023/10/07 06:49:39;;;;;;;9.10;5.87;;;;;;;11.94;100.00;100870.19;5090476;28;20670;-66
2023/10/07 06:52:04;;;;;;;11.30;6.20;;;;;;;12.01;100.00;100857.03;5051480;28;20302;-66
2023/10/07 06:54:32;;;;;;;10.90;5.90;;;;;;;12.16;100.00;100852.88;5090023;28;20180;-66
2023/10/07 06:56:58;;;;;;;15.87;6.10;;;;;;;12.24;100.00;100855.88;5085814;28;20181;-66
2023/10/07 06:59:29;;;;;;;9.53;6.10;;;;;;;12.30;100.00;100858.16;5083649;28;20180;-66
2023/10/07 07:01:55;;;;;;;14.17;6.37;;;;;;;12.11;100.00;100851.31;5069549;28;20227;-66
2023/10/07 07:04:22;;;;;;;8.63;5.80;;;;;;;12.30;100.00;100853.00;5089049;28;20270;-65
2023/10/07 07:07:09;;;;;;;11.57;6.20;;;;;;;12.37;100.00;100861.28;5070360;28;20173;-66
2023/10/07 07:12:18;;;;;;;10.13;6.77;;;;;;;12.35;100.00;100891.47;5081916;28;20580;-68
2023/10/07 07:14:51;;;;;;;9.70;5.83;;;;;;;12.55;100.00;100888.75;5093328;28;20204;-67
2023/10/07 07:17:29;;;;;;;9.37;6.63;;;;;;;12.61;100.00;100895.31;5071613;28;20169;-67
2023/10/07 07:22:42;;;;;;;12.47;6.20;;;;;;;12.65;100.00;100911.50;5059393;28;20224;-66
2023/10/07 07:25:12;;;;;;;9.27;5.97;;;;;;;12.62;100.00;100907.31;5079698;28;20176;-67
2023/10/07 07:27:44;;;;;;;8.67;6.07;;;;;;;12.68;100.00;100909.59;5082561;28;20199;-67
2023/10/07 07:30:19;;;;;;;9.67;5.73;;;;;;;12.72;100.00;100907.69;5040999;28;20223;-67
2023/10/07 07:32:45;;;;;;;12.63;5.83;;;;;;;12.91;100.00;100899.84;5073575;28;20893;-66
2023/10/07 07:35:11;;;;;;;10.30;6.23;;;;;;;13.01;100.00;100907.94;5092945;28;20181;-66
2023/10/07 07:37:36;;;;;;;9.83;5.70;;;;;;;13.12;100.00;100908.22;5092879;28;20180;-66
2023/10/07 07:40:35;;;;;;;8.43;5.70;;;;;;;13.08;100.00;100888.63;5082499;28;20188;-66
2023/10/07 07:42:56;;;;;;;6.90;5.83;;;;;;;13.23;100.00;100894.75;5053033;28;20265;-67
2023/10/07 07:45:27;;;;;;;10.20;6.77;;;;;;;13.28;100.00;100903.06;5089474;28;20163;-66
2023/10/07 07:47:53;;;;;;;7.93;5.77;;;;;;;13.44;100.00;100900.53;5081185;28;20193;-67
2023/10/07 07:50:19;;;;;;;11.37;6.67;;;;;;;13.52;100.00;100905.28;5077818;28;20224;-67
2023/10/07 07:52:49;;;;;;;8.27;5.30;;;;;;;13.52;100.00;100911.31;5081108;28;20399;-66
2023/10/07 07:55:16;;;;;;;10.67;5.87;;;;;;;13.74;100.00;100917.06;5088769;28;20287;-66
2023/10/07 07:57:44;;;;;;;10.27;6.63;;;;;;;13.90;100.00;100917.06;5086812;28;20234;-67
2023/10/07 08:00:11;;;;;;;7.97;5.70;;;;;;;14.03;100.00;100920.63;5064253;28;20173;-67
2023/10/07 08:02:36;;;;;;;11.30;6.87;;;;;;;14.16;100.00;100913.81;5075570;28;20193;-66
2023/10/07 08:05:04;;;;;;;10.23;6.47;;;;;;;14.29;100.00;100913.13;5085976;28;20217;-66
2023/10/07 08:07:32;;;;;;;10.27;5.80;;;;;;;14.55;100.00;100928.91;5092412;28;20180;-66
2023/10/07 08:09:58;;;;;;;9.37;6.17;;;;;;;14.59;100.00;100927.84;5092175;28;20319;-67
2023/10/07 08:12:28;;;;;;;9.80;6.57;;;;;;;14.72;100.00;100927.97;5092874;28;20223;-66
2023/10/07 08:14:58;;;;;;;11.37;6.10;;;;;;;14.75;100.00;100925.19;5073843;28;20231;-67
2023/10/07 08:17:27;;;;;;;7.97;5.93;;;;;;;15.00;100.00;100924.56;5072427;28;20176;-66
2023/10/07 08:19:53;;;;;;;10.03;6.40;;;;;;;15.07;100.00;100923.28;5063444;28;20188;-66
2023/10/07 08:22:19;;;;;;;7.50;5.77;;;;;;;15.20;100.00;100928.53;5048399;28;20240;-67
2023/10/07 08:24:44;;;;;;;9.83;6.07;;;;;;;15.35;100.00;100931.13;5092043;28;20176;-67
2023/10/07 08:27:43;;;;;;;10.93;5.77;;;;;;;15.42;100.00;100924.66;5085320;28;20190;-66
2023/10/07 08:30:04;;;;;;;10.07;5.90;;;;;;;16.14;100.00;100920.09;5079477;28;20230;-67
2023/10/07 08:32:35;;;;;;;11.47;5.97;;;;;;;16.56;100.00;100929.50;5091026;28;20215;-64
2023/10/07 08:35:03;;;;;;;10.73;5.60;;;;;;;16.77;100.00;100925.50;5097770;28;20176;-65
2023/10/07 08:37:32;;;;;;;9.03;5.30;;;;;;;17.36;100.00;100926.69;5078888;28;20176;-65
2023/10/07 08:40:07;;;;;;;12.17;5.93;;;;;;;17.87;100.00;100930.94;5081609;28;20203;-66
2023/10/07 08:42:36;;;;;;;10.80;6.50;;;;;;;18.00;100.00;100924.88;5049972;28;20224;-66
2023/10/07 08:45:01;;;;;;;10.77;5.40;;;;;;;18.38;100.00;100935.06;5071116;28;20173;-65
2023/10/07 08:47:27;;;;;;;9.37;5.30;;;;;;;18.44;100.00;100931.16;5099404;28;20553;-65
2023/10/07 08:49:56;;;;;;;7.67;5.53;;;;;;;18.04;100.00;100934.91;5093092;28;20262;-66
2023/10/07 08:52:27;;;;;;;6.87;4.77;;;;;;;17.94;100.00;100935.69;5074631;28;20217;-65
2023/10/07 08:54:53;;;;;;;9.23;5.47;;;;;;;17.59;100.00;100934.66;5071726;28;20207;-67
2023/10/07 08:57:22;;;;;;;7.97;5.13;;;;;;;16.84;100.00;100938.88;5071978;28;20598;-66
2023/10/07 08:59:52;;;;;;;9.03;5.47;;;;;;;16.77;100.00;100932.47;5069673;28;20198;-66
2023/10/07 09:02:28;;;;;;;9.03;5.10;;;;;;;16.62;100.00;100937.75;5061374;28;20225;-65
2023/10/07 09:04:55;;;;;;;9.87;5.13;;;;;;;16.57;100.00;100931.19;5074322;28;20206;-65
2023/10/07 09:07:21;;;;;;;8.67;5.67;;;;;;;16.43;100.00;100930.34;5073656;28;20184;-66
2023/10/07 09:09:47;;;;;;;8.07;5.23;;;;;;;16.44;100.00;100924.22;5091482;28;20172;-66
2023/10/07 09:12:15;;;;;;;13.33;6.30;;;;;;;16.47;100.00;100925.75;5061920;28;20273;-65
2023/10/07 09:14:51;;;;;;;9.00;5.97;;;;;;;16.39;100.00;100923.69;5091257;28;20228;-66
2023/10/07 09:17:23;;;;;;;7.83;5.90;;;;;;;16.54;100.00;100937.41;5073389;28;20230;-64
2023/10/07 09:19:52;;;;;;;8.60;5.27;;;;;;;16.71;100.00;100928.50;5080680;28;20179;-65
2023/10/07 09:22:34;;;;;;;9.80;5.97;;;;;;;16.65;100.00;100925.50;5065775;28;20592;-66
2023/10/07 09:25:17;;;;;;;9.63;5.60;;;;;;;17.24;100.00;100931.00;5095761;28;20169;-65
2023/10/07 09:27:55;;;;;;;9.10;5.30;;;;;;;17.40;100.00;100933.38;5095823;28;20542;-66
2023/10/07 09:30:35;;;;;;;10.33;5.33;;;;;;;17.55;100.00;100939.25;5066521;28;20183;-65
2023/10/07 09:33:06;;;;;;;10.97;5.37;;;;;;;17.48;100.00;100939.81;5083143;28;20187;-65
2023/10/07 09:35:31;;;;;;;6.23;4.83;;;;;;;17.83;100.00;100929.47;5076564;28;20176;-63
2023/10/07 09:37:59;;;;;;;9.27;5.00;;;;;;;18.24;100.00;100927.41;5077073;28;20546;-66
2023/10/07 09:41:29;;;;;;;7.37;5.17;;;;;;;18.15;100.00;100930.72;5064037;28;20248;-66
2023/10/07 09:43:20;;;;;;;9.93;5.33;;;;;;;18.58;100.00;100929.28;5072787;28;20291;-66
2023/10/07 09:45:52;;;;;;;8.13;4.87;;;;;;;18.67;100.00;100912.97;5077037;28;20655;-66
2023/10/07 09:48:23;;;;;;;6.93;4.87;;;;;;;18.86;100.00;100915.81;5095413;28;20187;-65
2023/10/07 09:50:50;;;;;;;8.80;4.83;;;;;;;19.13;100.00;100911.25;5064223;28;20307;-66
2023/10/07 09:53:22;;;;;;;8.50;5.10;;;;;;;19.10;100.00;100914.06;5069664;28;20176;-66
2023/10/07 09:56:11;;;;;;;8.93;5.17;;;;;;;18.70;100.00;100920.53;5069478;28;20176;-67
2023/10/07 09:58:59;;;;;;;9.10;5.17;;;;;;;18.73;100.00;100912.50;5076439;28;20176;-66
2023/10/07 10:01:54;;;;;;;8.47;5.37;;;;;;;19.01;100.00;100918.22;5061728;28;20228;-66
2023/10/07 10:04:40;;;;;;;8.13;4.90;;;;;;;18.88;100.00;100923.53;5087587;28;20212;-67
2023/10/07 10:07:15;;;;;;;7.93;4.93;;;;;;;18.94;100.00;100928.31;5068087;28;20172;-66
2023/10/07 10:10:05;;;;;;;10.57;5.30;;;;;;;18.74;100.00;100936.78;5076539;28;20312;-66
2023/10/07 10:12:56;;;;;;;7.70;4.97;;;;;;;18.54;100.00;100926.94;5080558;28;20218;-67
2023/10/07 10:18:31;;;;;;;8.70;5.40;;;;;;;19.16;100.00;100931.84;5081801;28;20294;-67
2023/10/07 10:21:04;;;;;;;8.23;5.37;;;;;;;19.12;100.00;100943.47;5089073;28;20221;-67
2023/10/07 10:23:33;;;;;;;6.67;4.27;;;;;;;18.78;100.00;100936.44;5083926;28;20277;-65
2023/10/07 10:26:13;;;;;;;8.50;5.30;;;;;;;18.93;100.00;100921.44;5101379;28;20213;-67
2023/10/07 10:28:39;;;;;;;9.80;5.20;;;;;;;18.79;100.00;100929.44;5087973;28;20271;-67
2023/10/07 10:31:17;;;;;;;7.03;5.00;;;;;;;18.96;100.00;100930.78;5055083;28;20308;-65
2023/10/07 10:33:42;;;;;;;11.90;5.40;;;;;;;19.18;100.00;100937.78;5065512;28;20191;-65
2023/10/07 10:36:08;;;;;;;7.77;4.80;;;;;;;19.17;100.00;100930.91;5094342;28;20188;-68
2023/10/07 10:38:37;;;;;;;7.07;4.90;;;;;;;19.27;100.00;100925.81;5093788;28;20177;-67
2023/10/07 10:41:04;;;;;;;9.00;4.97;;;;;;;19.88;100.00;100930.56;5062019;28;20236;-66
2023/10/07 10:43:31;;;;;;;6.67;5.03;;;;;;;19.88;100.00;100930.56;5083809;28;20253;-66
2023/10/07 10:46:07;;;;;;;8.43;4.77;;;;;;;19.82;100.00;100926.63;5093703;28;20297;-67
2023/10/07 10:48:38;;;;;;;6.23;4.17;;;;;;;20.14;100.00;100925.84;5075426;28;20275;-66
2023/10/07 10:51:08;;;;;;;7.47;5.17;;;;;;;20.27;100.00;100912.59;5062151;28;20228;-66
2023/10/07 10:53:35;;;;;;;8.23;4.20;;;;;;;20.64;100.00;100901.66;5073919;28;20188;-67
2023/10/07 10:56:02;;;;;;;7.70;4.67;;;;;;;20.83;100.00;100900.13;5087982;28;20240;-66
2023/10/07 10:58:27;;;;;;;7.37;4.30;;;;;;;20.93;100.00;100900.16;5101715;28;20180;-67
2023/10/07 11:00:54;;;;;;;9.13;5.00;;;;;;;21.04;100.00;100894.84;5075317;28;20310;-69
2023/10/07 11:03:23;;;;;;;8.27;4.67;;;;;;;21.14;100.00;100896.69;5079878;28;20196;-66
2023/10/07 11:05:52;;;;;;;5.97;4.60;;;;;;;21.14;100.00;100896.69;5095658;28;20183;-66
2023/10/07 11:08:22;;;;;;;6.33;4.43;;;;;;;21.35;100.00;100893.97;5075563;28;20168;-66
2023/10/07 11:10:57;;;;;;;6.47;4.40;;;;;;;21.49;100.00;100900.59;5062295;28;20298;-67
2023/10/07 11:13:23;;;;;;;5.67;4.13;;;;;;;21.17;100.00;100899.00;5101469;28;20178;-65
2023/10/07 11:16:12;;;;;;;6.80;4.10;;;;;;;21.10;100.00;100904.78;5094622;28;20286;-66
2023/10/07 11:18:46;;;;;;;6.20;4.60;;;;;;;20.74;100.00;100899.13;5113867;28;20175;-66
2023/10/07 11:21:12;;;;;;;4.97;4.10;;;;;;;20.36;100.00;100897.94;5089379;28;20219;-66
2023/10/07 11:23:44;;;;;;;6.60;4.03;;;;;;;20.22;100.00;100896.47;5096510;28;20288;-66
2023/10/07 11:26:11;;;;;;;6.30;4.20;;;;;;;20.34;100.00;100883.34;5094925;28;20171;-65
2023/10/07 11:28:38;;;;;;;7.00;4.23;;;;;;;19.88;100.00;100880.13;5099258;28;20574;-66
2023/10/07 11:31:06;;;;;;;7.83;4.30;;;;;;;19.87;100.00;100878.47;5056785;28;20221;-66
2023/10/07 11:33:34;;;;;;;6.57;4.60;;;;;;;19.81;100.00;100878.00;5066051;28;20213;-66
2023/10/07 11:36:02;;;;;;;5.97;4.20;;;;;;;19.77;100.00;100870.53;5071774;28;20207;-67
2023/10/07 11:38:28;;;;;;;5.63;4.20;;;;;;;20.13;100.00;100871.09;5084690;28;20192;-66
2023/10/07 11:40:55;;;;;;;6.90;4.43;;;;;;;19.91;100.00;100853.75;5083298;28;20613;-67
2023/10/07 11:43:21;;;;;;;5.30;3.77;;;;;;;19.97;100.00;100861.09;5105651;28;20238;-66
2023/10/07 11:45:47;;;;;;;7.90;4.03;;;;;;;20.18;100.00;100863.72;5092516;28;20629;-66
2023/10/07 11:48:13;;;;;;;7.27;4.30;;;;;;;20.11;100.00;100854.75;5074302;28;20263;-66
2023/10/07 11:50:39;;;;;;;5.40;3.80;;;;;;;20.04;100.00;100859.63;5067999;28;20356;-66
2023/10/07 11:53:05;;;;;;;6.37;4.27;;;;;;;19.91;100.00;100849.38;5083706;28;20172;-66
2023/10/07 11:55:31;;;;;;;6.63;4.63;;;;;;;19.78;100.00;100856.53;5093674;28;20179;-66
2023/10/07 11:58:01;;;;;;;12.03;4.60;;;;;;;19.58;100.00;100851.13;5089632;28;20172;-66
2023/10/07 12:00:34;;;;;;;6.87;4.30;;;;;;;19.64;100.00;100845.41;5060490;28;20235;-66
2023/10/07 12:03:01;;;;;;;5.57;3.77;;;;;;;19.81;100.00;100851.06;5072618;28;20655;-66
2023/10/07 12:05:27;;;;;;;9.93;5.20;;;;;;;19.93;100.00;100839.66;5083059;28;20175;-69
2023/10/07 12:08:01;;;;;;;7.47;4.70;;;;;;;19.77;100.00;100847.88;5087621;28;20183;-65
2023/10/07 12:10:27;;;;;;;9.00;4.33;;;;;;;19.86;100.00;100838.50;5074764;28;20303;-65